Time;durP1;ratioP1;P1;durP2;ratioP2;P2;SDS_P1;SDS_P2;PMS_P1;PMS_P2;Temp;Humidity;BMP_temperature;BMP_pressure;BME280_temperature;BME280_humidity;BME280_pressure;Samples;Min_cycle;Max_cycle;Signal;HPM_P1;HPM_P2
2022/05/25 00:01:48;;;;;;;6.50;3.60;;;11.90;96.40;;;;;;5063779;28;20472;-75
2022/05/25 00:04:15;;;;;;;3.30;2.23;;;11.90;96.30;;;;;;5060333;28;20863;-75
2022/05/25 00:06:41;;;;;;;11.40;2.97;;;11.90;96.30;;;;;;5044470;28;20990;-74
2022/05/25 00:09:08;;;;;;;6.10;4.60;;;11.70;96.40;;;;;;5054828;28;20507;-75
2022/05/25 00:11:35;;;;;;;6.20;2.53;;;11.60;96.30;;;;;;5058849;28;20490;-74
2022/05/25 00:14:04;;;;;;;16.13;5.57;;;11.60;96.20;;;;;;5059407;28;20574;-75
2022/05/25 00:16:30;;;;;;;3.47;2.80;;;11.60;96.10;;;;;;5056688;28;20498;-75
2022/05/25 00:21:43;;;;;;;3.07;2.60;;;11.70;95.90;;;;;;5059565;28;20627;-76
2022/05/25 00:24:10;;;;;;;11.37;4.60;;;11.60;95.90;;;;;;5058100;28;20527;-76
2022/05/25 00:26:37;;;;;;;15.10;2.30;;;11.40;96.20;;;;;;5057798;28;20497;-75
2022/05/25 00:29:05;;;;;;;6.03;5.43;;;11.30;96.80;;;;;;5059481;28;20488;-76
2022/05/25 00:31:32;;;;;;;5.03;1.97;;;11.30;97.00;;;;;;5049059;28;20845;-75
2022/05/25 00:33:59;;;;;;;13.63;4.77;;;11.20;97.00;;;;;;5058578;28;20475;-75
2022/05/25 00:36:28;;;;;;;2.70;2.20;;;11.20;97.00;;;;;;5046452;28;20489;-75
2022/05/25 00:38:55;;;;;;;2.87;2.60;;;11.10;96.80;;;;;;5063142;28;20467;-75
2022/05/25 00:41:28;;;;;;;10.53;2.20;;;11.00;97.10;;;;;;5050905;28;20479;-74
2022/05/25 00:43:55;;;;;;;6.73;3.40;;;11.00;97.00;;;;;;5061609;28;21053;-75
2022/05/25 00:46:26;;;;;;;2.27;1.93;;;11.00;96.90;;;;;;5059486;28;20990;-74
2022/05/25 00:48:55;;;;;;;4.80;3.20;;;11.00;96.70;;;;;;5061095;28;20482;-75
2022/05/25 00:51:26;;;;;;;4.87;2.33;;;11.00;96.80;;;;;;5058214;28;20515;-74
2022/05/25 00:53:56;;;;;;;8.33;3.07;;;11.20;96.90;;;;;;5061957;28;20476;-76
2022/05/25 00:56:26;;;;;;;2.20;1.77;;;11.20;96.60;;;;;;5045049;28;20479;-75
2022/05/25 00:58:57;;;;;;;6.87;3.87;;;11.10;96.70;;;;;;5057173;28;20481;-75
2022/05/25 01:01:28;;;;;;;2.17;1.20;;;11.20;95.90;;;;;;5055968;28;20486;-74
2022/05/25 01:03:55;;;;;;;2.77;2.40;;;11.20;95.80;;;;;;5059622;28;20504;-75
2022/05/25 01:06:42;;;;;;;12.47;2.57;;;11.10;95.40;;;;;;5057994;28;20493;-75
2022/05/25 01:09:17;;;;;;;5.23;4.40;;;11.10;95.30;;;;;;5045825;28;20478;-75
2022/05/25 01:11:59;;;;;;;10.30;1.87;;;10.70;96.10;;;;;;5060432;28;20541;-75
2022/05/25 01:14:44;;;;;;;2.50;2.30;;;10.60;96.10;;;;;;5051000;28;20472;-75
2022/05/25 01:17:24;;;;;;;3.03;2.60;;;10.50;96.50;;;;;;5050367;28;20843;-74
2022/05/25 01:20:06;;;;;;;2.77;2.30;;;10.50;96.20;;;;;;5059418;28;20488;-75
2022/05/25 01:22:51;;;;;;;2.77;2.07;;;10.50;96.10;;;;;;5053566;28;20992;-74
2022/05/25 01:25:37;;;;;;;5.90;2.37;;;10.40;96.20;;;;;;5059477;28;20478;-74
2022/05/25 01:28:11;;;;;;;6.17;4.93;;;10.30;96.30;;;;;;5059105;28;20517;-74
2022/05/25 01:30:42;;;;;;;11.93;2.73;;;10.30;96.70;;;;;;5058061;28;20485;-74
2022/05/25 01:33:15;;;;;;;4.87;4.37;;;10.30;96.60;;;;;;5056710;28;20870;-75
2022/05/25 01:35:59;;;;;;;4.60;4.13;;;10.40;96.30;;;;;;5056556;28;20905;-75
2022/05/25 01:38:36;;;;;;;3.20;2.87;;;10.50;96.40;;;;;;5062351;28;20471;-75
2022/05/25 01:41:12;;;;;;;4.30;3.67;;;10.40;96.40;;;;;;5036681;28;20746;-74
2022/05/25 01:43:44;;;;;;;5.70;2.03;;;10.30;97.00;;;;;;5049617;28;20488;-74
2022/05/25 01:46:20;;;;;;;4.20;3.13;;;10.30;97.50;;;;;;5058881;28;20484;-74
2022/05/25 01:48:50;;;;;;;2.83;2.53;;;10.30;97.50;;;;;;5064789;28;20489;-74
2022/05/25 01:51:20;;;;;;;4.10;2.60;;;10.40;97.30;;;;;;5059153;28;20483;-74
2022/05/25 01:53:54;;;;;;;6.63;2.30;;;10.50;96.50;;;;;;5058960;28;20505;-74
2022/05/25 01:56:24;;;;;;;3.20;2.20;;;10.60;96.10;;;;;;5063704;28;20486;-73
2022/05/25 01:58:55;;;;;;;2.63;2.43;;;10.60;95.70;;;;;;5064256;28;20844;-74
2022/05/25 02:01:23;;;;;;;8.07;2.40;;;10.60;95.20;;;;;;5063372;28;21001;-74
2022/05/25 02:07:05;;;;;;;2.50;2.30;;;10.40;95.00;;;;;;5060903;28;20489;-73
2022/05/25 02:10:13;;;;;;;10.70;2.70;;;10.10;95.60;;;;;;5059056;28;20877;-74
2022/05/25 02:13:05;;;;;;;10.50;2.10;;;10.10;95.80;;;;;;5040662;28;20473;-75
2022/05/25 02:15:41;;;;;;;7.23;5.07;;;10.20;96.20;;;;;;5059589;28;20485;-73
2022/05/25 02:18:15;;;;;;;6.20;5.20;;;10.40;96.00;;;;;;5051220;28;21052;-75
2022/05/25 02:20:48;;;;;;;5.03;2.70;;;10.40;95.70;;;;;;5057650;28;20478;-74
2022/05/25 02:23:19;;;;;;;12.40;2.53;;;10.50;95.40;;;;;;5062064;28;20832;-75
2022/05/25 02:25:50;;;;;;;4.43;4.03;;;10.50;95.50;;;;;;5059940;28;20612;-73
2022/05/25 02:28:21;;;;;;;2.67;2.47;;;10.60;95.40;;;;;;5060278;28;20570;-75
2022/05/25 02:30:52;;;;;;;3.43;2.50;;;10.50;95.20;;;;;;5068360;28;20491;-74
2022/05/25 02:33:25;;;;;;;3.20;2.47;;;10.50;94.90;;;;;;5063540;28;20505;-74
2022/05/25 02:35:53;;;;;;;11.03;3.00;;;10.20;94.70;;;;;;5059792;28;20487;-73
2022/05/25 02:38:20;;;;;;;2.77;2.40;;;10.20;94.80;;;;;;5062407;28;20491;-73
2022/05/25 02:40:47;;;;;;;3.70;3.07;;;10.20;95.00;;;;;;5061938;28;20516;-74
2022/05/25 02:43:13;;;;;;;14.50;2.73;;;10.30;95.00;;;;;;5060537;28;20489;-74
2022/05/25 02:45:40;;;;;;;4.17;3.77;;;10.30;94.80;;;;;;5059718;28;20496;-74
2022/05/25 02:48:08;;;;;;;5.63;4.50;;;10.30;95.00;;;;;;5063941;28;20486;-73
2022/05/25 02:50:36;;;;;;;10.63;2.20;;;10.20;94.90;;;;;;5061728;28;20836;-73
2022/05/25 02:53:05;;;;;;;5.70;4.70;;;10.20;94.80;;;;;;5063489;28;20496;-73
2022/05/25 02:55:33;;;;;;;4.33;3.93;;;10.10;94.70;;;;;;5062042;28;20531;-74
2022/05/25 02:57:59;;;;;;;11.70;4.57;;;10.00;94.80;;;;;;5062882;28;20482;-73
2022/05/25 03:00:27;;;;;;;2.70;2.13;;;10.00;94.90;;;;;;5057512;28;20491;-73
2022/05/25 03:02:56;;;;;;;3.97;3.60;;;10.10;94.90;;;;;;5061095;28;21219;-74
2022/05/25 03:05:24;;;;;;;4.27;3.83;;;10.10;94.90;;;;;;5059339;28;20501;-74
2022/05/25 03:07:52;;;;;;;3.90;3.13;;;10.20;94.80;;;;;;5061293;28;20473;-74
2022/05/25 03:10:19;;;;;;;13.00;2.63;;;10.20;94.80;;;;;;5043863;28;20895;-74
2022/05/25 03:12:47;;;;;;;2.90;2.07;;;10.20;94.50;;;;;;5053234;28;20901;-74
2022/05/25 03:15:14;;;;;;;3.50;2.40;;;10.10;94.10;;;;;;5031265;28;20610;-74
2022/05/25 03:17:41;;;;;;;2.53;2.20;;;9.90;95.00;;;;;;5027235;28;20508;-73
2022/05/25 03:20:09;;;;;;;5.83;4.90;;;9.70;95.60;;;;;;5056015;28;20548;-73
2022/05/25 03:22:37;;;;;;;4.53;3.23;;;9.60;96.80;;;;;;5064163;28;20481;-73
2022/05/25 03:25:07;;;;;;;25.73;5.63;;;9.70;96.60;;;;;;5046839;28;20519;-73
2022/05/25 03:27:34;;;;;;;3.23;2.83;;;9.80;96.30;;;;;;5064711;28;20480;-73
2022/05/25 03:30:00;;;;;;;10.67;7.37;;;9.70;95.50;;;;;;5031940;28;21252;-73
2022/05/25 03:32:28;;;;;;;12.20;3.47;;;9.70;95.50;;;;;;5059654;28;20497;-73
2022/05/25 03:34:57;;;;;;;5.87;3.17;;;9.60;95.40;;;;;;5051421;28;20677;-73
2022/05/25 03:37:24;;;;;;;3.30;3.00;;;9.60;95.60;;;;;;5015503;28;20562;-73
2022/05/25 03:39:51;;;;;;;11.33;2.37;;;9.50;95.60;;;;;;5040511;28;20489;-73
2022/05/25 03:42:20;;;;;;;2.80;2.03;;;9.50;95.50;;;;;;4998654;28;20505;-74
2022/05/25 03:44:47;;;;;;;3.17;2.57;;;9.50;95.60;;;;;;5046578;28;21059;-74
2022/05/25 03:47:15;;;;;;;13.53;3.37;;;9.60;95.70;;;;;;5002355;28;20484;-73
2022/05/25 03:49:42;;;;;;;6.00;4.57;;;9.60;96.00;;;;;;5030314;28;20494;-73
2022/05/25 03:52:10;;;;;;;8.30;5.67;;;9.70;95.60;;;;;;5048498;28;20488;-73
2022/05/25 03:54:37;;;;;;;10.23;3.67;;;9.70;95.10;;;;;;5042143;28;20485;-73
2022/05/25 03:57:06;;;;;;;17.43;9.50;;;9.70;94.80;;;;;;5047755;28;20538;-73
2022/05/25 03:59:34;;;;;;;3.23;2.73;;;9.60;95.20;;;;;;5053060;28;20552;-73
2022/05/25 04:02:01;;;;;;;11.40;7.20;;;9.60;95.50;;;;;;5012642;28;21162;-73
2022/05/25 04:04:28;;;;;;;2.70;2.30;;;9.60;95.50;;;;;;5051872;28;20490;-73
2022/05/25 04:06:55;;;;;;;6.27;4.47;;;;;;;;;;5007121;28;20512;-73
2022/05/25 04:09:22;;;;;;;5.23;4.10;;;9.60;95.10;;;;;;5027415;28;20485;-73
2022/05/25 04:11:50;;;;;;;4.73;3.40;;;9.60;95.00;;;;;;5009311;28;20531;-73
2022/05/25 04:14:17;;;;;;;9.10;4.30;;;9.60;95.20;;;;;;5027851;28;20563;-73
2022/05/25 04:16:46;;;;;;;5.87;2.77;;;9.60;95.40;;;;;;5052416;28;20492;-74
2022/05/25 04:19:14;;;;;;;10.93;4.70;;;9.60;95.10;;;;;;5052495;28;20485;-73
2022/05/25 04:21:41;;;;;;;2.47;2.23;;;9.40;95.60;;;;;;5031923;28;21010;-74
2022/05/25 04:24:08;;;;;;;10.00;6.33;;;9.40;95.90;;;;;;5002808;28;20475;-72
2022/05/25 04:26:35;;;;;;;6.03;2.77;;;9.40;95.90;;;;;;5066486;28;20493;-73
2022/05/25 04:29:02;;;;;;;10.50;6.80;;;9.40;95.90;;;;;;5055812;28;20505;-73
2022/05/25 04:31:30;;;;;;;5.87;3.43;;;9.40;96.10;;;;;;5060277;28;20484;-72
2022/05/25 04:33:58;;;;;;;11.17;6.97;;;9.40;96.50;;;;;;5059077;28;20759;-72
2022/05/25 04:36:25;;;;;;;29.27;3.77;;;9.40;97.00;;;;;;5056464;28;21126;-73
2022/05/25 04:38:52;;;;;;;5.87;4.60;;;9.50;96.90;;;;;;5059057;28;20486;-73
2022/05/25 04:41:18;;;;;;;7.47;4.00;;;9.60;97.00;;;;;;5056028;28;21058;-73
2022/05/25 04:43:45;;;;;;;20.40;4.10;;;9.70;97.50;;;;;;5057216;28;20493;-73
2022/05/25 04:46:14;;;;;;;8.67;5.67;;;9.80;98.00;;;;;;5054964;28;20611;-73
2022/05/25 04:48:41;;;;;;;5.80;4.83;;;9.80;98.40;;;;;;5059526;28;20921;-73
2022/05/25 04:51:09;;;;;;;10.40;7.50;;;9.90;98.50;;;;;;5060441;28;20913;-73
2022/05/25 04:53:35;;;;;;;8.67;5.07;;;9.90;98.80;;;;;;5058488;28;20926;-72
2022/05/25 04:58:48;;;;;;;8.00;5.00;;;10.10;98.30;;;;;;5056335;28;20484;-73
2022/05/25 05:01:19;;;;;;;3.77;3.40;;;10.20;98.10;;;;;;5060194;28;20509;-73
2022/05/25 05:03:46;;;;;;;31.53;5.47;;;10.40;97.90;;;;;;5060657;28;20515;-73
2022/05/25 05:06:15;;;;;;;7.70;5.80;;;10.40;98.20;;;;;;5058687;28;20486;-72
2022/05/25 05:08:43;;;;;;;4.10;3.20;;;10.50;98.20;;;;;;5060457;28;20487;-73
2022/05/25 05:11:17;;;;;;;17.80;7.00;;;10.60;98.40;;;;;;5059336;28;20886;-73
2022/05/25 05:13:44;;;;;;;4.47;3.60;;;10.60;98.60;;;;;;5059705;28;20481;-73
2022/05/25 05:16:13;;;;;;;8.00;4.90;;;11.60;99.40;;;;;;5057933;28;20485;-73
2022/05/25 05:18:41;;;;;;;4.90;4.40;;;10.70;99.40;;;;;;5058608;28;20586;-73
2022/05/25 05:21:10;;;;;;;11.73;7.93;;;10.80;99.60;;;;;;5059496;28;20490;-72
2022/05/25 05:23:39;;;;;;;11.77;3.73;;;10.90;99.90;;;;;;5058666;28;20485;-73
2022/05/25 05:26:06;;;;;;;14.23;7.60;;;11.00;99.90;;;;;;5058627;28;20575;-73
2022/05/25 05:28:36;;;;;;;5.97;3.87;;;11.10;99.90;;;;;;5058812;28;20876;-73
2022/05/25 05:31:05;;;;;;;8.37;5.20;;;11.20;99.90;;;;;;5058632;28;20504;-73
2022/05/25 05:33:32;;;;;;;9.53;4.03;;;11.30;99.90;;;;;;5061800;28;20965;-73
2022/05/25 05:36:05;;;;;;;8.63;6.13;;;11.50;99.90;;;;;;5057102;28;20497;-72
2022/05/25 05:38:32;;;;;;;14.93;4.90;;;11.70;99.90;;;;;;5062106;28;20477;-74
2022/05/25 05:41:00;;;;;;;9.40;6.97;;;11.90;99.90;;;;;;5053074;28;20490;-74
2022/05/25 05:43:27;;;;;;;8.43;5.50;;;12.00;99.90;;;;;;5046134;28;20482;-73
2022/05/25 05:45:55;;;;;;;16.63;6.80;;;12.10;99.90;;;;;;5055290;28;20497;-74
2022/05/25 05:48:24;;;;;;;9.00;4.70;;;12.10;99.90;;;;;;5059929;28;20810;-73
2022/05/25 05:50:55;;;;;;;6.30;4.93;;;12.30;99.90;;;;;;5060395;28;20480;-73
2022/05/25 05:53:23;;;;;;;5.80;4.50;;;12.40;99.90;;;;;;5060920;28;20498;-74
2022/05/25 05:55:49;;;;;;;6.90;5.27;;;12.50;99.90;;;;;;5056481;28;22092;-74
2022/05/25 05:58:18;;;;;;;21.67;6.37;;;12.70;99.90;;;;;;5056529;28;20480;-75
2022/05/25 06:00:45;;;;;;;6.33;3.90;;;12.80;99.90;;;;;;5058440;28;20490;-74
2022/05/25 06:03:13;;;;;;;12.93;6.93;;;13.00;99.90;;;;;;5060992;28;20493;-74
2022/05/25 06:05:40;;;;;;;25.03;6.33;;;13.20;99.90;;;;;;5047423;28;20493;-75
2022/05/25 06:08:09;;;;;;;11.37;8.43;;;13.30;99.30;;;;;;5058007;28;20981;-74
2022/05/25 06:10:38;;;;;;;5.93;4.90;;;13.40;99.50;;;;;;5060611;28;20484;-74
2022/05/25 06:13:05;;;;;;;15.83;5.90;;;13.60;98.80;;;;;;5060033;28;20484;-74
2022/05/25 06:21:13;;;;;;;6.90;5.80;;;14.10;98.50;;;;;;5000575;28;21012;-75
2022/05/25 06:23:39;;;;;;;17.40;4.00;;;14.30;96.80;;;;;;5040910;28;20484;-75
2022/05/25 06:26:07;;;;;;;8.50;6.10;;;14.30;97.00;;;;;;5060937;28;21329;-75
2022/05/25 06:28:34;;;;;;;8.63;6.00;;;14.50;96.40;;;;;;5055102;28;20949;-72
2022/05/25 06:31:02;;;;;;;17.20;7.33;;;14.60;96.70;;;;;;5059119;28;20492;-77
2022/05/25 06:33:29;;;;;;;5.00;3.80;;;14.80;95.80;;;;;;5063818;28;20976;-76
2022/05/25 06:35:57;;;;;;;5.33;4.40;;;14.90;95.70;;;;;;5060023;28;21305;-76
2022/05/25 06:38:24;;;;;;;13.10;4.23;;;15.00;95.50;;;;;;5058933;28;20559;-75
2022/05/25 06:40:51;;;;;;;4.87;3.90;;;15.20;95.30;;;;;;5058059;28;20484;-75
2022/05/25 06:43:18;;;;;;;3.70;3.23;;;15.30;95.40;;;;;;5062773;28;20488;-77
2022/05/25 06:45:44;;;;;;;12.03;5.60;;;15.60;95.40;;;;;;5052195;28;20794;-76
2022/05/25 06:48:12;;;;;;;8.20;5.30;;;15.60;94.80;;;;;;5060033;28;20501;-76
2022/05/25 06:50:39;;;;;;;4.23;3.87;;;15.60;94.70;;;;;;5061270;28;20890;-77
2022/05/25 06:53:06;;;;;;;11.63;5.63;;;15.70;94.80;;;;;;5059612;28;20644;-74
2022/05/25 06:55:33;;;;;;;6.57;5.03;;;15.70;95.10;;;;;;5059641;28;20490;-75
2022/05/25 06:58:00;;;;;;;10.77;6.90;;;15.60;94.30;;;;;;5062115;28;20472;-76
2022/05/25 07:00:26;;;;;;;13.33;3.53;;;15.80;94.40;;;;;;5063095;28;20482;-76
2022/05/25 07:02:53;;;;;;;7.77;4.40;;;16.00;94.40;;;;;;5062378;28;20483;-77
2022/05/25 07:05:21;;;;;;;7.67;4.70;;;16.10;95.10;;;;;;5061734;28;20547;-76
2022/05/25 07:07:49;;;;;;;12.80;4.20;;;16.10;94.10;;;;;;5060505;28;20480;-76
2022/05/25 07:10:16;;;;;;;5.77;4.13;;;16.10;94.20;;;;;;5060395;28;20486;-79
2022/05/25 07:12:43;;;;;;;3.67;3.37;;;16.10;93.40;;;;;;5062156;28;20486;-76
2022/05/25 07:15:11;;;;;;;14.03;5.60;;;19.10;95.50;;;;;;5058601;28;20490;-75
2022/05/25 07:17:38;;;;;;;4.40;3.40;;;;;;;;;;5055179;28;20487;-76
2022/05/25 07:20:09;;;;;;;10.27;6.60;;;;;;;;;;5057624;28;20969;-77
2022/05/25 07:22:40;;;;;;;3.33;3.03;;;16.30;93.60;;;;;;5054266;28;20562;-75
2022/05/25 07:25:07;;;;;;;8.90;7.57;;;16.30;93.00;;;;;;5058347;28;20480;-76
2022/05/25 07:27:34;;;;;;;22.13;4.70;;;16.30;93.40;;;;;;5055315;28;20475;-79
2022/05/25 07:30:01;;;;;;;9.00;6.87;;;16.40;92.10;;;;;;5044653;28;20489;-76
2022/05/25 07:32:28;;;;;;;4.60;3.13;;;16.80;92.40;;;;;;5065687;28;20976;-78
2022/05/25 07:35:00;;;;;;;22.50;4.57;;;17.10;91.70;;;;;;5057889;28;20479;-76
2022/05/25 07:37:32;;;;;;;4.70;2.47;;;17.30;91.30;;;;;;5056181;28;20498;-75
2022/05/25 07:40:04;;;;;;;7.67;5.27;;;;;;;;;;5058904;28;20520;-76
2022/05/25 07:42:32;;;;;;;4.50;2.70;;;17.90;91.20;;;;;;5060018;28;20577;-77
2022/05/25 07:45:00;;;;;;;5.30;4.47;;;18.20;91.80;;;;;;5060047;28;20479;-78
2022/05/25 07:47:29;;;;;;;6.37;3.00;;;18.50;89.90;;;;;;5053268;28;20841;-74
2022/05/25 07:49:56;;;;;;;5.67;3.70;;;18.80;89.50;;;;;;5055681;28;20475;-76
2022/05/25 07:52:26;;;;;;;12.97;5.03;;;19.00;88.00;;;;;;5057654;28;20467;-78
2022/05/25 07:54:53;;;;;;;3.60;2.43;;;19.20;87.90;;;;;;5060857;28;20830;-77
2022/05/25 07:57:21;;;;;;;4.93;3.60;;;19.40;89.40;;;;;;5057409;28;20483;-78
2022/05/25 07:59:47;;;;;;;6.67;3.23;;;19.50;87.40;;;;;;5052155;28;20489;-78
2022/05/25 08:07:49;;;;;;;4.63;3.27;;;19.30;86.80;;;;;;5055129;28;20806;-75
2022/05/25 08:10:21;;;;;;;6.80;4.20;;;19.30;85.60;;;;;;5057525;28;21023;-74
2022/05/25 08:12:51;;;;;;;8.10;2.47;;;19.40;85.30;;;;;;5058598;28;20475;-74
2022/05/25 08:15:18;;;;;;;8.57;4.33;;;19.30;87.20;;;;;;5057289;28;20490;-75
2022/05/25 08:17:46;;;;;;;4.80;3.13;;;;;;;;;;5059056;28;20471;-75
2022/05/25 08:20:13;;;;;;;13.63;4.70;;;19.40;88.70;;;;;;5060379;28;20491;-75
2022/05/25 08:22:40;;;;;;;5.60;3.60;;;19.60;87.20;;;;;;5056419;28;20509;-76
2022/05/25 08:25:09;;;;;;;9.83;6.53;;;19.80;86.20;;;;;;5054527;28;20479;-75
2022/05/25 08:27:39;;;;;;;9.63;2.90;;;19.90;86.20;;;;;;5057501;28;20993;-75
2022/05/25 08:30:09;;;;;;;10.50;7.60;;;20.10;86.30;;;;;;5077949;28;20466;-77
2022/05/25 08:32:36;;;;;;;7.20;4.60;;;20.20;83.50;;;;;;5058933;28;20481;-75
2022/05/25 08:35:05;;;;;;;9.63;6.33;;;20.30;82.80;;;;;;5059838;28;20498;-75
2022/05/25 08:37:32;;;;;;;5.83;2.73;;;;;;;;;;5058124;28;20479;-72
2022/05/25 08:39:59;;;;;;;4.13;3.07;;;20.50;85.00;;;;;;5058972;28;20474;-76
2022/05/25 08:42:28;;;;;;;4.00;3.37;;;20.40;82.30;;;;;;5058129;28;20519;-74
2022/05/25 08:44:56;;;;;;;3.77;2.80;;;20.50;82.60;;;;;;5058134;28;20483;-73
2022/05/25 08:47:25;;;;;;;5.30;2.80;;;20.30;80.30;;;;;;5056050;28;20479;-77
2022/05/25 08:49:52;;;;;;;2.73;2.40;;;20.30;84.30;;;;;;5057915;28;20494;-77
2022/05/25 08:52:25;;;;;;;3.67;3.10;;;20.40;83.40;;;;;;5060195;28;20513;-76
2022/05/25 08:54:52;;;;;;;12.20;2.87;;;20.30;80.10;;;;;;5059173;28;20479;-71
2022/05/25 08:57:24;;;;;;;4.87;3.10;;;20.20;82.00;;;;;;5056709;28;20488;-76
2022/05/25 08:59:54;;;;;;;4.53;2.67;;;20.30;82.30;;;;;;5058717;28;20486;-73
2022/05/25 09:02:28;;;;;;;4.83;3.23;;;20.50;83.60;;;;;;5058983;28;20478;-76
2022/05/25 09:05:04;;;;;;;5.00;3.63;;;20.80;81.70;;;;;;5057234;28;20571;-78
2022/05/25 09:07:39;;;;;;;15.80;3.20;;;20.80;79.30;;;;;;5056233;28;20490;-75
2022/05/25 09:10:07;;;;;;;8.20;5.43;;;20.70;79.20;;;;;;5058991;28;20478;-77
2022/05/25 09:12:38;;;;;;;32.57;4.43;;;20.50;81.10;;;;;;5059509;28;20475;-74
2022/05/25 09:15:09;;;;;;;10.37;7.77;;;20.40;78.20;;;;;;5057232;28;20480;-76
2022/05/25 09:17:43;;;;;;;4.70;3.27;;;20.50;83.20;;;;;;5057863;28;20497;-77
2022/05/25 09:20:13;;;;;;;6.70;4.97;;;20.50;79.30;;;;;;5059042;28;20477;-75
2022/05/25 09:22:42;;;;;;;4.47;3.83;;;20.50;80.30;;;;;;5058657;28;20480;-76
2022/05/25 09:25:12;;;;;;;8.10;6.00;;;20.60;81.30;;;;;;5055146;28;20936;-76
2022/05/25 09:27:42;;;;;;;4.30;3.43;;;20.70;79.70;;;;;;5055413;28;20489;-76
2022/05/25 09:30:10;;;;;;;11.00;6.50;;;20.70;77.30;;;;;;5053506;28;20483;-79
2022/05/25 09:32:49;;;;;;;10.80;2.50;;;20.80;78.50;;;;;;5055018;28;20562;-78
2022/05/25 09:35:20;;;;;;;4.20;3.20;;;20.80;80.00;;;;;;5046633;28;21041;-75
2022/05/25 09:37:52;;;;;;;3.23;2.80;;;21.20;82.20;;;;;;5045677;28;21075;-75
2022/05/25 09:40:26;;;;;;;5.70;2.90;;;21.50;79.10;;;;;;5058372;28;20491;-79
2022/05/25 09:42:55;;;;;;;5.20;4.40;;;;;;;;;;5053517;28;20473;-75
2022/05/25 09:45:23;;;;;;;4.87;3.67;;;21.80;78.50;;;;;;5054914;28;20489;-79
2022/05/25 09:47:53;;;;;;;4.57;2.40;;;21.90;78.70;;;;;;5056509;28;20852;-72
2022/05/25 09:50:30;;;;;;;4.27;2.90;;;21.70;77.90;;;;;;5055857;28;20497;-75
2022/05/25 09:53:00;;;;;;;6.70;5.07;;;21.90;76.40;;;;;;5046990;28;20477;-75
2022/05/25 09:55:33;;;;;;;6.27;4.90;;;21.50;77.40;;;;;;5056739;28;20896;-76
2022/05/25 09:58:02;;;;;;;6.90;4.83;;;21.80;79.50;;;;;;5056600;28;20486;-77
2022/05/25 10:00:55;;;;;;;3.00;2.43;;;20.10;76.30;;;;;;5059738;28;20512;-76
2022/05/25 10:03:33;;;;;;;2.80;2.47;;;21.30;78.10;;;;;;5057407;28;20492;-77
2022/05/25 10:06:02;;;;;;;6.87;4.60;;;21.40;78.90;;;;;;5059462;28;20503;-74
2022/05/25 10:08:36;;;;;;;4.30;3.43;;;21.30;77.40;;;;;;5063025;28;20557;-70
2022/05/25 10:11:27;;;;;;;13.10;5.93;;;21.00;76.90;;;;;;5057042;28;20478;-75
2022/05/25 10:13:55;;;;;;;3.50;2.57;;;21.00;78.40;;;;;;5052196;28;21073;-75
2022/05/25 10:16:25;;;;;;;3.17;2.77;;;21.20;78.90;;;;;;5058528;28;20554;-75
2022/05/25 10:18:55;;;;;;;11.20;2.93;;;21.40;77.70;;;;;;5057007;28;20474;-77
2022/05/25 10:21:28;;;;;;;3.33;2.67;;;21.70;76.00;;;;;;5061213;28;20844;-74
2022/05/25 10:23:57;;;;;;;8.40;1.77;;;22.00;76.90;;;;;;5050469;28;20706;-75
2022/05/25 10:26:33;;;;;;;5.40;2.40;;;21.90;74.60;;;;;;5060035;28;20560;-75
2022/05/25 10:29:06;;;;;;;6.63;5.10;;;21.80;75.40;;;;;;5057458;28;20485;-77
2022/05/25 10:37:18;;;;;;;6.37;4.07;;;21.30;77.10;;;;;;5048235;28;20615;-78
2022/05/25 10:39:48;;;;;;;3.30;2.30;;;21.30;76.40;;;;;;5059419;28;20487;-73
2022/05/25 10:42:19;;;;;;;7.73;4.20;;;21.60;75.80;;;;;;5058457;28;21172;-74
2022/05/25 10:44:58;;;;;;;2.67;1.87;;;21.70;74.60;;;;;;5061314;28;20486;-76
2022/05/25 10:47:39;;;;;;;3.43;2.60;;;21.90;74.90;;;;;;5047162;28;20467;-72
2022/05/25 10:50:13;;;;;;;9.23;5.33;;;22.10;73.60;;;;;;5060780;28;20489;-77
2022/05/25 10:52:46;;;;;;;3.27;2.70;;;22.10;72.40;;;;;;5064516;28;20484;-71
2022/05/25 10:55:13;;;;;;;7.00;3.97;;;21.80;73.90;;;;;;5059435;28;20476;-74
2022/05/25 10:57:56;;;;;;;13.77;2.67;;;21.70;77.60;;;;;;5057885;28;20515;-73
2022/05/25 11:00:36;;;;;;;2.70;2.17;;;21.90;75.60;;;;;;5050823;28;20857;-73
2022/05/25 11:03:31;;;;;;;7.57;4.03;;;21.80;72.70;;;;;;5048416;28;20852;-73
2022/05/25 11:06:05;;;;;;;19.73;3.37;;;22.20;73.50;;;;;;5046256;28;21357;-75
2022/05/25 11:08:47;;;;;;;5.80;3.23;;;22.40;70.90;;;;;;5067786;28;20639;-72
2022/05/25 11:11:23;;;;;;;4.27;2.93;;;22.20;73.60;;;;;;5061512;28;20489;-71
2022/05/25 11:14:03;;;;;;;3.73;2.83;;;22.20;72.30;;;;;;5056469;28;20479;-75
2022/05/25 11:16:55;;;;;;;2.53;1.63;;;21.70;73.10;;;;;;5061087;28;20553;-69
2022/05/25 11:19:54;;;;;;;3.90;2.57;;;21.20;73.70;;;;;;5058160;28;20971;-74
2022/05/25 11:22:40;;;;;;;2.17;1.20;;;21.30;73.00;;;;;;5051394;28;21155;-73
2022/05/25 11:25:30;;;;;;;7.63;5.03;;;21.60;74.40;;;;;;5049129;28;20987;-72
2022/05/25 11:28:17;;;;;;;5.57;3.00;;;21.70;70.90;;;;;;5061394;28;20818;-74
2022/05/25 11:30:57;;;;;;;3.90;3.10;;;21.70;73.00;;;;;;5058392;28;20488;-75
2022/05/25 11:33:40;;;;;;;7.77;2.37;;;21.80;75.10;;;;;;5050138;28;20492;-74
2022/05/25 11:36:17;;;;;;;8.33;5.07;;;22.00;72.90;;;;;;5051171;28;20482;-77
2022/05/25 11:38:59;;;;;;;4.93;3.47;;;22.20;71.60;;;;;;5062906;28;20477;-76
2022/05/25 11:41:37;;;;;;;2.80;2.10;;;22.50;72.20;;;;;;5060211;28;20801;-71
2022/05/25 11:44:17;;;;;;;7.40;5.50;;;;;;;;;;5060284;28;20486;-77
2022/05/25 11:46:45;;;;;;;6.67;4.23;;;22.40;71.50;;;;;;5055363;28;20487;-75
2022/05/25 11:49:36;;;;;;;13.63;2.87;;;22.30;72.80;;;;;;5059027;28;20493;-74
2022/05/25 11:52:22;;;;;;;4.73;3.30;;;22.40;72.60;;;;;;5058598;28;20478;-73
2022/05/25 11:55:02;;;;;;;3.63;2.60;;;22.60;72.20;;;;;;5054765;28;20475;-73
2022/05/25 11:57:36;;;;;;;7.53;1.97;;;22.40;69.30;;;;;;5056750;28;20481;-75
2022/05/25 12:00:26;;;;;;;7.50;5.00;;;22.30;69.80;;;;;;5054291;28;21246;-73
2022/05/25 12:03:12;;;;;;;9.80;2.60;;;22.10;69.30;;;;;;5060755;28;20578;-75
2022/05/25 12:05:51;;;;;;;6.87;4.30;;;22.00;70.70;;;;;;5057717;28;20517;-75
2022/05/25 12:08:42;;;;;;;3.37;2.40;;;22.10;73.90;;;;;;5059767;28;20486;-77
2022/05/25 12:11:23;;;;;;;13.50;5.17;;;22.40;70.60;;;;;;5053635;28;20489;-77
2022/05/25 12:14:01;;;;;;;3.40;2.63;;;22.50;70.70;;;;;;5060884;28;20475;-75
2022/05/25 12:16:34;;;;;;;9.50;2.50;;;22.40;70.20;;;;;;5058282;28;20482;-74
2022/05/25 12:19:06;;;;;;;8.10;5.70;;;22.80;73.40;;;;;;5045653;28;20481;-76
2022/05/25 12:21:35;;;;;;;3.50;2.00;;;22.80;70.60;;;;;;5059520;28;20758;-76
2022/05/25 12:24:06;;;;;;;8.30;5.80;;;23.00;71.30;;;;;;5059012;28;20522;-78
2022/05/25 12:26:37;;;;;;;5.90;3.43;;;22.90;72.40;;;;;;5052155;28;20558;-74
2022/05/25 12:29:12;;;;;;;11.20;4.20;;;22.60;67.50;;;;;;5058076;28;20881;-73
2022/05/25 12:31:40;;;;;;;3.40;3.00;;;22.70;67.50;;;;;;5054711;28;20479;-73
2022/05/25 12:34:07;;;;;;;15.50;5.37;;;22.80;69.90;;;;;;5057300;28;20968;-70
2022/05/25 12:36:34;;;;;;;3.10;2.30;;;22.60;67.30;;;;;;5045371;28;20853;-74
2022/05/25 12:39:01;;;;;;;6.90;5.00;;;22.60;67.70;;;;;;5055774;28;20481;-73
2022/05/25 12:41:32;;;;;;;12.60;3.07;;;22.90;69.30;;;;;;5058341;28;20485;-76
2022/05/25 12:48:30;;;;;;;4.53;3.37;;;23.10;68.40;;;;;;5057978;28;20479;-75
2022/05/25 12:49:51;;;;;;;2.67;2.10;;;23.20;71.80;;;;;;5016236;28;20464;-73
2022/05/25 12:52:46;;;;;;;2.73;2.10;;;23.10;66.40;;;;;;5047716;28;20482;-75
2022/05/25 12:55:34;;;;;;;30.60;5.03;;;23.10;69.50;;;;;;5055134;28;20520;-71
2022/05/25 12:58:01;;;;;;;4.77;3.10;;;22.90;67.00;;;;;;5046232;28;20492;-68
2022/05/25 13:00:41;;;;;;;30.03;3.47;;;22.90;67.20;;;;;;5058779;28;20478;-76
2022/05/25 13:03:51;;;;;;;7.50;5.20;;;22.70;69.10;;;;;;5045639;28;21032;-73
2022/05/25 13:06:21;;;;;;;2.70;2.23;;;22.90;69.60;;;;;;5032842;28;20537;-76
2022/05/25 13:09:10;;;;;;;10.63;3.03;;;23.00;66.60;;;;;;5057831;28;20486;-77
2022/05/25 13:11:41;;;;;;;3.60;2.50;;;22.70;64.60;;;;;;5045213;28;20517;-73
2022/05/25 13:14:46;;;;;;;16.03;5.50;;;22.50;66.90;;;;;;5051428;28;20492;-78
2022/05/25 13:17:45;;;;;;;28.67;4.67;;;22.80;66.80;;;;;;5044013;28;20494;-78
2022/05/25 13:20:46;;;;;;;6.63;5.00;;;23.20;68.30;;;;;;5056640;28;20519;-78
2022/05/25 13:23:52;;;;;;;4.87;3.33;;;23.60;66.10;;;;;;5056884;28;20470;-76
2022/05/25 13:26:25;;;;;;;2.63;1.90;;;23.60;68.20;;;;;;5054545;28;20478;-72
2022/05/25 13:28:59;;;;;;;9.70;2.50;;;23.80;65.60;;;;;;5048340;28;20482;-77
2022/05/25 13:31:33;;;;;;;4.33;2.60;;;23.70;65.00;;;;;;5056394;28;20517;-79
2022/05/25 13:34:10;;;;;;;3.53;1.00;;;23.40;64.30;;;;;;5058413;28;20478;-76
2022/05/25 13:36:43;;;;;;;2.53;1.37;;;23.40;62.20;;;;;;5059061;28;20485;-76
2022/05/25 13:39:17;;;;;;;4.13;2.53;;;23.30;65.10;;;;;;5063675;28;20486;-77
2022/05/25 13:41:49;;;;;;;3.27;1.67;;;23.00;65.10;;;;;;5062702;28;20481;-75